This is the latest recevied weather packets stored in our database for station/object N1ORT. If no packets are shown the sender has not sent any weather packets the latest 1 day(s).
| Time | Temp. | Humidity | Pressure | Rain* | Wind** | Luminosity | Snow |
|---|---|---|---|---|---|---|---|
| 1778089763 | 22.22° C | 60% | 1005.1 hPa | 0 mm | - | 74 W/m² | - |
| 1778089461 | 22.22° C | 59% | 1004.9 hPa | 0 mm | - | 91 W/m² | - |
| 1778088552 | 22.22° C | 58% | 1004.8 hPa | 0 mm | - | 136 W/m² | - |
| 1778087643 | 22.22° C | 59% | 1005.2 hPa | 0 mm | - | 307 W/m² | - |
| 1778086730 | 22.78° C | 59% | 1005.3 hPa | 0 mm | - | 304 W/m² | - |
| 1778085820 | 22.22° C | 60% | 1005.6 hPa | 0 mm | - | 244 W/m² | - |
| 1778081656 | 21.67° C | 63% | 1006.8 hPa | 0 mm | - | 277 W/m² | - |
| 1778081354 | 21.11° C | 63% | 1006.8 hPa | 0 mm | - | 261 W/m² | - |
| 1778081050 | 21.11° C | 63% | 1006.7 hPa | 0 mm | - | 237 W/m² | - |
| 1778079536 | 21.67° C | 66% | 1007.1 hPa | 0 mm | - | 332 W/m² | - |
| 1778079232 | 21.11° C | 67% | 1007.1 hPa | 0 mm | - | 405 W/m² | - |
| 1778078930 | 21.11° C | 67% | 1007.1 hPa | 0 mm | - | 339 W/m² | - |
| 1778078626 | 20.56° C | 67% | 1006.8 hPa | 0 mm | - | 447 W/m² | - |
| 1778078325 | 20.56° C | 68% | 1006.8 hPa | 0 mm | - | 321 W/m² | - |
| 1778077720 | 20.56° C | 69% | 1006.9 hPa | 0 mm | - | 476 W/m² | - |
| 1778075601 | 19.44° C | 73% | 1007.2 hPa | 0 mm | - | 323 W/m² | - |
| 1778074994 | 18.89° C | 74% | 1007.2 hPa | 0 mm | - | 251 W/m² | - |
| 1778074388 | 18.89° C | 74% | 1007.5 hPa | 0 mm | - | 236 W/m² | - |
| 1778073782 | 18.33° C | 75% | 1007.5 hPa | 0 mm | - | 188 W/m² | - |
| 1778073480 | 18.33° C | 75% | 1007.5 hPa | 0 mm | - | 180 W/m² | - |
| 1778071058 | 18.33° C | 77% | 1007.3 hPa | 0 mm | - | 155 W/m² | - |
| 1778069242 | 17.78° C | 78% | 1007.5 hPa | 0 mm | - | 410 W/m² | - |
| 1778068940 | 17.22° C | 79% | 1007.5 hPa | 0 mm | - | 149 W/m² | - |
| 1778068033 | 17.22° C | 79% | 1007.8 hPa | 0 mm | - | 118 W/m² | - |
| 1778066822 | 16.67° C | 80% | 1007.9 hPa | 0 mm | - | 85 W/m² | - |
* Rain latest hour (hover to see other rain measurements)
** Current wind speed in m/s (hover to see current wind gust speed)